Latest Weather Observations for Murrurundi Gap

IDN60801

Issued at 5:35 am EST Thursday 17 April 2014 (issued every 30 minutes, with the page automatically refreshed every 10 minutes)

About weather observations | Map of weather stations | Latest weather observations for NSW | Other Formats
Station Details ID: 061392 Name: MURRURUNDI GAP AWS Lat: -31.74 Lon: 150.79 Height: 729.4 m
Data from the previous 72 hours. | See also: Recent months for locations in New South Wales
Date/Time
EST
Temp
°C
App
Temp
°C
Dew
Point
Rel
Hum
%
Delta-T
°C
Wind Press
QNH
hPa
Press
MSL
hPa
Rain
since 9 am
mm
Dir
 
Spd
km/h
Gust
km/h
Spd
kts
Gust
kts
17/05:33am 10.4 6.3 10.2 99 0.1 SE 22 26 12 14 1019.6 - 0.0
17/05:30am 10.0 5.8 9.9 99 0.1 SE 22 26 12 14 1019.6 - 0.0
17/05:00am 9.1 4.6 8.6 97 0.3 SE 22 28 12 15 1019.4 - 0.0
17/04:47am 9.8 5.1 9.2 96 0.3 SSE 24 30 13 16 1019.4 - 0.0
17/04:30am 9.8 5.0 8.9 94 0.5 SSE 24 30 13 16 1019.2 - 0.0
17/04:00am 10.2 5.6 9.7 97 0.3 SE 24 30 13 16 1019.1 - 0.0
17/03:30am 10.2 5.5 9.4 95 0.4 SSE 24 30 13 16 1019.0 - 0.0
17/03:00am 10.7 5.4 9.8 94 0.5 SE 28 32 15 17 1018.8 1016.6 0.0
17/02:38am 10.6 5.7 10.1 97 0.3 SE 26 32 14 17 1018.9 - 0.0
17/02:30am 10.4 5.5 9.9 97 0.3 SE 26 32 14 17 1019.0 - 0.0
17/02:07am 10.2 5.2 9.4 95 0.4 SE 26 33 14 18 1019.1 - 0.0
17/02:00am 10.8 5.5 9.7 93 0.6 SE 28 35 15 19 1019.1 - 0.0
17/01:30am 11.2 5.6 10.1 93 0.6 SE 30 35 16 19 1019.2 - 0.0
17/01:00am 11.4 5.7 9.8 90 0.8 SE 30 35 16 19 1019.4 - 0.0
17/12:30am 11.9 6.3 10.3 90 0.9 SE 30 37 16 20 1019.6 - 0.0
17/12:00am 11.8 6.3 10.4 91 0.7 SE 30 35 16 19 1019.6 1017.5 0.0
 
Date/Time
EST
Temp
°C
App
Temp
°C
Dew
Point
Rel
Hum
%
Delta-T
°C
Wind Press
QNH
hPa
Press
MSL
hPa
Rain
since 9 am
mm
Dir
 
Spd
km/h
Gust
km/h
Spd
kts
Gust
kts
16/11:30pm 11.8 6.6 10.4 91 0.7 SSE 28 33 15 18 1019.7 - 0.0
16/11:00pm 11.6 7.2 10.3 92 0.7 SE 24 30 13 16 1019.8 - 0.0
16/10:30pm 12.1 7.6 10.0 87 1.1 SE 24 28 13 15 1019.9 - 0.0
16/10:00pm 12.0 6.7 9.7 86 1.2 SE 28 35 15 19 1019.9 - 0.0
16/09:30pm 12.2 7.4 10.3 88 1.0 SSE 26 32 14 17 1020.0 - 0.0
16/09:00pm 11.6 7.6 10.3 92 0.7 SE 22 30 12 16 1020.0 1017.9 0.0
16/08:30pm 11.9 7.9 10.5 91 0.8 SE 22 30 12 16 1019.8 - 0.0
16/08:00pm 12.8 8.1 10.7 87 1.1 SE 26 32 14 17 1019.6 - 0.0
16/07:30pm 13.4 8.8 10.9 85 1.4 SSE 26 32 14 17 1019.5 - 0.0
16/07:00pm 13.7 9.1 10.9 83 1.5 SSE 26 30 14 16 1019.3 - 0.0
16/06:30pm 13.8 9.2 11.0 83 1.5 SSE 26 32 14 17 1019.1 - 0.0
16/06:00pm 14.0 10.0 10.6 80 1.8 SSE 22 28 12 15 1018.9 1016.7 0.0
16/05:30pm 14.9 9.4 10.5 75 2.4 SSE 30 35 16 19 1018.3 - 0.0
16/05:00pm 15.4 9.9 10.4 72 2.7 SE 30 37 16 20 1018.2 - 0.0
16/04:30pm 16.0 11.6 10.3 69 3.1 SE 24 32 13 17 1018.2 - 0.0
16/04:00pm 16.1 11.2 10.0 67 3.3 SE 26 32 14 17 1018.3 - 0.0
16/03:30pm 16.2 10.6 10.1 67 3.3 SSE 30 35 16 19 1018.3 - 0.0
16/03:00pm 16.2 11.0 10.3 68 3.2 SSE 28 33 15 18 1018.3 1016.2 0.0
16/02:30pm 16.3 11.7 11.0 71 2.9 SSE 26 35 14 19 1018.3 - 0.0
16/02:00pm 16.5 11.3 10.4 67 3.4 SE 28 37 15 20 1018.2 - 0.0
16/01:30pm 17.0 11.8 11.5 70 3.1 SE 30 41 16 22 1018.3 - 0.0
16/01:00pm 16.0 10.3 11.0 72 2.8 ESE 32 41 17 22 1018.5 - 0.0
16/12:30pm 15.2 9.8 11.0 76 2.3 SSE 30 35 16 19 1019.1 - 0.0
16/12:00pm 14.5 10.0 11.3 81 1.8 SSE 26 33 14 18 1019.9 1017.8 0.0
16/11:52am 14.7 9.9 11.8 83 1.6 SSE 28 33 15 18 1019.9 - 0.0
16/11:30am 14.0 9.6 11.7 86 1.3 S 26 33 14 18 1020.1 - 0.0
16/11:00am 13.4 9.0 11.8 90 0.9 SSE 26 35 14 19 1020.5 - 0.0
16/10:30am 13.4 8.6 11.5 88 1.0 SSE 28 35 15 19 1020.5 - 0.0
16/10:00am 13.7 7.4 11.0 84 1.5 ESE 35 46 19 25 1020.3 - 0.0
16/09:30am 13.8 7.9 11.3 85 1.4 SE 33 43 18 23 1020.4 - 0.0
16/09:00am 13.1 7.6 11.7 91 0.8 SSE 32 41 17 22 1020.4 1018.2 0.0
16/08:30am 12.4 6.8 11.6 95 0.4 SE 32 39 17 21 1020.3 - 0.0
16/08:00am 12.0 6.1 11.2 95 0.4 SSE 33 41 18 22 1020.1 - 0.0
16/07:30am 11.8 5.9 11.0 95 0.4 SE 33 43 18 23 1019.6 - 0.0
16/07:00am 11.7 5.4 10.9 95 0.4 SE 35 44 19 24 1019.3 - 0.0
16/06:48am 11.7 5.0 10.9 95 0.4 SSE 37 46 20 25 1019.3 - 0.0
16/06:40am 11.6 4.9 11.1 97 0.3 SSE 37 43 20 23 1019.3 - 0.0
16/06:30am 11.5 5.2 11.0 97 0.3 SSE 35 43 19 23 1019.1 - 0.0
16/06:00am 11.5 4.4 10.9 96 0.3 SSE 39 46 21 25 1018.9 1016.7 0.0
16/05:30am 11.6 5.0 11.4 99 0.1 SE 37 48 20 26 1018.6 - 0.0
16/05:25am 11.6 5.0 11.4 99 0.1 SE 37 44 20 24 1018.9 - 0.0
16/05:22am 11.5 4.5 11.3 99 0.1 SE 39 46 21 25 1018.9 - 0.0
16/05:06am 11.4 4.0 11.2 99 0.1 SSE 41 48 22 26 1018.6 - 0.0
16/05:00am 11.4 4.4 11.2 99 0.1 SSE 39 46 21 25 1018.8 - 0.0
16/04:30am 11.5 5.3 11.3 99 0.1 SE 35 44 19 24 1018.6 - 0.0
16/04:11am 11.5 5.3 11.3 99 0.1 SSE 35 44 19 24 1018.5 - 0.0
16/04:00am 11.6 5.0 11.4 99 0.1 SE 37 43 20 23 1018.5 - 0.0
16/03:55am 11.5 4.9 11.3 99 0.1 SE 37 43 20 23 1018.4 - 0.0
16/03:30am 11.5 5.6 11.3 99 0.1 SSE 33 41 18 22 1018.6 - 0.0
16/03:00am 11.6 5.8 11.4 99 0.1 SE 33 41 18 22 1018.3 1016.2 0.0
16/02:30am 11.6 6.0 11.4 99 0.1 SE 32 43 17 23 1018.6 - 0.0
16/02:00am 11.6 5.4 11.4 99 0.1 SSE 35 46 19 25 1018.8 - 0.0
16/01:53am 11.7 5.5 11.4 98 0.2 SSE 35 43 19 23 1018.8 - 0.0
16/01:30am 11.8 6.1 11.2 96 0.3 SSE 32 39 17 21 1019.2 - 0.0
16/01:00am 12.2 5.8 10.6 90 0.9 SE 35 43 19 23 1019.3 - 0.0
16/12:51am 12.2 6.1 10.6 90 0.9 SE 33 43 18 23 1019.3 - 0.0
16/12:50am 12.2 6.1 10.6 90 0.9 SE 33 43 18 23 1019.3 - 0.0
16/12:35am 12.3 5.8 10.5 89 1.0 SSE 35 43 19 23 1019.5 - 0.0
16/12:30am 12.2 6.1 10.4 89 1.0 SSE 33 43 18 23 1019.6 - 0.0
16/12:00am 12.7 6.5 10.2 85 1.3 SE 33 44 18 24 1019.7 1017.6 0.0
 
Date/Time
EST
Temp
°C
App
Temp
°C
Dew
Point
Rel
Hum
%
Delta-T
°C
Wind Press
QNH
hPa
Press
MSL
hPa
Rain
since 9 am
mm
Dir
 
Spd
km/h
Gust
km/h
Spd
kts
Gust
kts
15/11:30pm 12.8 5.8 10.0 83 1.5 SE 37 52 20 28 1019.7 - 0.0
15/11:00pm 12.4 5.8 10.0 85 1.3 SE 35 43 19 23 1019.6 - 0.0
15/10:30pm 12.2 5.3 10.3 88 1.0 SE 37 46 20 25 1019.8 - 0.0
15/10:00pm 12.2 6.1 10.4 89 1.0 SE 33 41 18 22 1020.0 - 0.0
15/09:30pm 12.4 6.7 11.1 92 0.7 SSE 32 39 17 21 1020.0 - 0.0
15/09:00pm 12.5 7.5 11.1 91 0.8 SE 28 33 15 18 1020.4 1018.2 0.0
15/08:30pm 12.8 7.4 11.0 89 1.0 SE 30 37 16 20 1020.4 - 0.0
15/08:00pm 13.6 8.1 10.6 82 1.6 SE 30 39 16 21 1020.3 - 0.0
15/07:30pm 13.6 8.4 10.4 81 1.7 SSE 28 33 15 18 1020.0 - 0.0
15/07:00pm 13.8 9.0 10.4 80 1.8 SSE 26 35 14 19 1019.8 - 0.0
15/06:30pm 14.1 9.4 10.5 79 2.0 SSE 26 32 14 17 1019.6 - 0.0
15/06:00pm 14.3 8.8 10.5 78 2.1 S 30 39 16 21 1019.1 1016.9 0.0
15/05:30pm 14.2 9.4 10.4 78 2.1 S 26 33 14 18 1018.9 - 0.0
15/05:00pm 14.9 10.7 9.9 72 2.7 SSE 22 30 12 16 1018.8 - 0.0
15/04:30pm 15.5 11.2 10.7 73 2.6 SSE 24 37 13 20 1018.8 - 0.0
15/04:00pm 15.6 11.3 10.6 72 2.7 SSE 24 35 13 19 1018.6 - 0.0
15/03:30pm 16.9 12.5 10.5 66 3.5 S 24 33 13 18 1018.6 - 0.0
15/03:00pm 17.9 14.4 11.0 64 3.9 SSE 20 30 11 16 1018.6 1016.5 0.0
15/02:30pm 17.5 13.9 10.6 64 3.8 SSE 20 30 11 16 1018.8 - 0.0
15/02:00pm 17.3 13.8 10.2 63 3.9 SSE 19 30 10 16 1018.5 - 0.0
15/01:30pm 18.3 15.3 10.7 61 4.2 ESE 17 24 9 13 1018.6 - 0.0
15/01:00pm 17.7 13.9 9.8 60 4.3 ESE 20 28 11 15 1019.1 - 0.0
15/12:30pm 17.8 14.2 10.7 63 4.0 ESE 20 32 11 17 1019.4 - 0.0
15/12:00pm 17.9 14.6 11.5 66 3.6 SE 20 30 11 16 1019.9 1017.8 0.0
15/11:30am 17.0 12.5 11.3 69 3.2 SE 26 35 14 19 1020.4 - 0.0
15/11:00am 16.7 12.3 11.6 72 2.9 SE 26 33 14 18 1020.6 - 0.0
15/10:30am 15.5 9.7 10.9 74 2.5 SE 32 41 17 22 1020.7 - 0.0
15/10:00am 15.2 9.8 10.8 75 2.4 SE 30 37 16 20 1021.0 - 0.0
15/09:30am 14.7 9.4 11.3 80 1.9 ESE 30 37 16 20 1021.2 - 0.0
15/09:12am 14.2 9.0 11.5 84 1.5 ESE 30 35 16 19 1021.2 - 0.0
15/09:00am 13.9 8.6 11.2 84 1.5 ESE 30 37 16 20 1021.3 1019.2 0.0
15/08:30am 13.0 8.1 12.7 98 0.2 SE 30 37 16 20 1021.1 - 0.0
15/08:02am 12.1 6.4 11.9 99 0.1 SSE 33 41 18 22 1020.7 - 0.0
15/08:00am 11.9 6.2 11.7 99 0.1 SSE 33 41 18 22 1020.7 - 0.0
15/07:30am 11.6 5.8 11.4 99 0.1 SE 33 39 18 21 1020.4 - 0.0
15/07:00am 11.2 5.5 11.0 99 0.1 SE 32 37 17 20 1020.0 - 0.0
15/06:30am 11.3 5.6 11.1 99 0.1 SE 32 37 17 20 1019.8 - 0.0
15/06:00am 11.3 6.0 11.1 99 0.1 SE 30 39 16 21 1019.6 1017.5 0.0
15/05:30am 11.3 5.4 11.1 99 0.1 SE 33 41 18 22 1019.5 - 0.0
15/05:00am 11.2 5.5 11.0 99 0.1 SE 32 39 17 21 1019.4 - 0.0
15/04:30am 11.2 5.5 11.0 99 0.1 SSE 32 39 17 21 1019.2 - 0.0
15/04:00am 11.2 5.3 11.0 99 0.1 SSE 33 39 18 21 1019.2 - 0.0
15/03:58am 11.2 5.3 11.0 99 0.1 SSE 33 39 18 21 1019.2 - 0.0
15/03:30am 11.3 5.0 11.1 99 0.1 SE 35 43 19 23 1019.1 - 0.0
15/03:00am 11.5 5.2 11.2 98 0.2 SE 35 43 19 23 1019.2 1017.0 0.0
15/02:30am 11.6 5.8 11.4 99 0.1 SE 33 41 18 22 1019.3 - 0.0
15/02:00am 11.6 5.8 11.4 99 0.1 SE 33 39 18 21 1019.5 - 0.0
15/01:30am 11.5 4.9 11.3 99 0.1 SE 37 46 20 25 1019.6 - 0.0
15/01:00am 11.5 4.9 11.3 99 0.1 SE 37 46 20 25 1019.5 - 0.0
15/12:30am 11.5 4.9 11.3 99 0.1 SE 37 46 20 25 1019.6 - 0.0
15/12:00am 11.5 4.9 11.2 98 0.2 SE 37 44 20 24 1019.6 1017.5 0.0
 
Date/Time
EST
Temp
°C
App
Temp
°C
Dew
Point
Rel
Hum
%
Delta-T
°C
Wind Press
QNH
hPa
Press
MSL
hPa
Rain
since 9 am
mm
Dir
 
Spd
km/h
Gust
km/h
Spd
kts
Gust
kts
14/11:30pm 11.6 5.4 11.3 98 0.2 SE 35 43 19 23 1019.7 - 0.0
14/11:00pm 11.8 5.6 11.3 97 0.3 SSE 35 43 19 23 1019.8 - 0.0
14/10:30pm 11.9 5.7 11.4 97 0.3 SE 35 44 19 24 1020.0 - 0.0
14/10:00pm 11.7 5.9 11.4 98 0.2 SE 33 41 18 22 1020.4 - 0.0
14/09:30pm 11.9 6.2 11.3 96 0.3 SE 32 41 17 22 1020.6 - 0.0
14/09:23pm 11.9 6.0 11.3 96 0.3 SSE 33 46 18 25 1020.6 - 0.0
14/09:00pm 11.9 6.2 11.1 95 0.4 SSE 32 41 17 22 1020.6 1018.5 0.0
14/08:30pm 12.4 6.7 11.1 92 0.7 SSE 32 39 17 21 1020.7 - 0.0
14/08:00pm 12.6 6.7 11.3 92 0.7 SSE 33 43 18 23 1020.4 - 0.0
14/07:30pm 12.9 6.6 11.1 89 1.0 SSE 35 46 19 25 1020.0 - 0.0
14/07:00pm 13.4 7.2 11.5 88 1.0 SSE 35 43 19 23 1019.8 - 0.0
14/06:30pm 13.7 7.8 11.2 85 1.4 SSE 33 46 18 25 1019.3 - 0.0
14/06:00pm 14.2 8.5 11.2 82 1.7 SE 32 43 17 23 1019.2 1017.0 0.0
14/05:30pm 14.8 9.5 11.2 79 2.0 SE 30 39 16 21 1018.8 - 0.0
14/05:00pm 15.4 10.4 10.8 74 2.5 SSE 28 41 15 22 1018.3 - 0.0
14/04:30pm 16.0 9.8 9.9 67 3.3 SSE 33 46 18 25 1018.1 - 0.0
14/04:05pm 16.5 10.4 9.9 65 3.6 SSE 32 50 17 27 1018.0 - 0.0
14/04:00pm 16.5 10.4 9.7 64 3.7 SSE 32 43 17 23 1018.0 - 0.0
14/03:30pm 16.8 10.6 10.0 64 3.7 SSE 33 44 18 24 1017.9 - 0.0
14/03:00pm 17.3 12.3 10.9 66 3.6 SSE 28 41 15 22 1017.9 1015.7 0.0
14/02:30pm 17.2 11.7 10.6 65 3.7 SSE 30 43 16 23 1017.7 - 0.0
14/02:00pm 17.3 11.9 10.9 66 3.6 SSE 30 39 16 21 1017.8 - 0.0
14/01:30pm 17.5 12.2 11.1 66 3.6 SSE 30 37 16 20 1017.9 - 0.0
14/01:00pm 17.4 13.1 11.9 70 3.1 SE 26 37 14 20 1018.2 - 0.0
14/12:30pm 16.6 12.0 11.1 70 3.1 SE 26 37 14 20 1018.4 - 0.0
14/12:00pm 16.3 11.3 11.0 71 2.9 SSE 28 35 15 19 1019.0 1016.8 0.0
14/11:30am 16.5 11.9 12.3 76 2.4 SE 28 37 15 20 1019.5 - 0.0
14/11:00am 16.0 10.9 11.8 76 2.4 SE 30 41 16 22 1019.7 - 0.0
14/10:30am 15.6 9.7 11.2 75 2.4 ESE 33 43 18 23 1019.7 - 0.0
14/10:00am 15.3 9.6 11.7 79 2.0 ESE 33 43 18 23 1019.9 - 0.0
14/09:30am 14.5 8.2 11.1 80 1.9 ESE 35 43 19 23 1020.0 - 0.0
14/09:00am 13.7 7.8 11.0 84 1.5 ESE 33 43 18 23 1020.0 1017.9 0.0
14/08:30am 13.6 7.8 10.8 83 1.5 ESE 32 41 17 22 1019.8 - 0.0
14/08:00am 13.1 6.8 11.0 87 1.1 SSE 35 41 19 22 1019.6 - 0.0
14/07:53am 12.7 6.6 10.6 87 1.1 SSE 33 41 18 22 1019.4 - 0.0
14/07:31am 12.2 6.8 10.8 91 0.8 SE 30 37 16 20 1019.3 - 0.0
14/07:30am 12.0 6.5 10.6 91 0.8 SE 30 37 16 20 1019.3 - 0.0
14/07:00am 11.4 5.2 10.1 92 0.7 SSE 33 41 18 22 1018.8 - 0.0
14/06:30am 11.4 4.9 10.3 93 0.6 SSE 35 43 19 23 1018.4 - 0.0
14/06:12am 11.3 4.4 10.2 93 0.6 SSE 37 44 20 24 1018.3 - 0.0
14/06:00am 11.4 5.3 10.5 94 0.5 SSE 33 41 18 22 1018.2 1016.1 0.0
14/05:43am 11.5 5.7 10.7 95 0.4 SSE 32 39 17 21 1018.4 - 0.0

Other Formats:

Comma delimited format used in spreadsheet applications
http://www.bom.gov.au/fwo/IDN60801/IDN60801.95747.axf

JavaScript Object Notation format (JSON) in row-major order
http://www.bom.gov.au/fwo/IDN60801/IDN60801.95747.json